KGOO

Nevada County Airport

Grass Valley, California, USA
METAR KGOO 250055Z AUTO 20003KT 10SM BKN100 20/09 A3000 RMK AO1
Observed Flight Rules
May-25 @ 00:55 UTC (19 minutes ago) Visual Flight Rules
Wind Visibility Clouds
200° at 3 knots 10 miles
  • Broken at 10,000' AGL
Temperatures Readings
Current 20°C / 68°F
Dewpoint 9°C / 48°F
Humidity 49%
Altimeter 30" Hg
Pressure 1016 hPa
Elevation 962
METAR KGOO 250055Z AUTO 20003KT 10SM BKN100 20/09 A3000 RMK AO1
Observed Flight Rules
May-25 @ 00:55 UTC
(19 minutes ago)
VFR
Wind Visibility
200° at 3 knots 10 miles
Clouds
  • Broken at 10,000' AGL
Temperature Dewpoint
20°C / 68°F 9°C / 48°F
Humidity Altimeter Pressure
49% 30" Hg 1016 hPa